Time;durP1;ratioP1;P1;durP2;ratioP2;P2;SDS_P1;SDS_P2;PMS_P1;PMS_P2;Temp;Humidity;BMP_temperature;BMP_pressure;BME280_temperature;BME280_humidity;BME280_pressure;Samples;Min_cycle;Max_cycle;Signal;HPM_P1;HPM_P2
2020/12/23 00:00:30;;;;;;;118.40;54.27;;;;;;;7.41;89.35;95591.81;5039055;28;20953;-83
2020/12/23 00:02:57;;;;;;;107.03;52.70;;;;;;;7.43;89.04;95593.38;5019095;28;20501;-84
2020/12/23 00:05:24;;;;;;;106.13;50.07;;;;;;;7.44;88.86;95597.69;5038013;28;20472;-83
2020/12/23 00:07:50;;;;;;;119.23;58.97;;;;;;;7.45;88.80;95582.84;5007524;28;20968;-84
2020/12/23 00:10:23;;;;;;;101.13;51.40;;;;;;;7.45;88.77;95595.91;5040825;28;20457;-83
2020/12/23 00:12:54;;;;;;;134.87;58.70;;;;;;;7.45;88.77;95583.69;5038676;28;20458;-84
2020/12/23 00:15:20;;;;;;;107.13;51.23;;;;;;;7.45;88.46;95596.75;5038385;28;20461;-84
2020/12/23 00:17:46;;;;;;;102.60;49.17;;;;;;;7.43;87.71;95585.56;5039728;28;20502;-84
2020/12/23 00:20:14;;;;;;;98.23;51.80;;;;;;;7.42;88.40;95598.69;5040787;28;20956;-84
2020/12/23 00:22:40;;;;;;;103.10;55.10;;;;;;;7.41;88.91;95595.25;5038323;28;20485;-83
2020/12/23 00:25:07;;;;;;;117.23;52.03;;;;;;;7.37;88.40;95606.81;5004852;28;20449;-83
2020/12/23 00:27:33;;;;;;;117.93;54.77;;;;;;;7.38;88.64;95605.06;5017506;28;20462;-83
2020/12/23 00:30:00;;;;;;;112.97;56.47;;;;;;;7.38;88.66;95599.81;5034710;28;20457;-83
2020/12/23 00:32:29;;;;;;;101.50;54.17;;;;;;;7.37;89.11;95598.16;5034531;28;20454;-83
2020/12/23 00:34:56;;;;;;;109.57;53.50;;;;;;;7.38;89.10;95581.56;5036405;28;20426;-83
2020/12/23 00:37:24;;;;;;;113.83;58.90;;;;;;;7.42;89.12;95596.09;5035427;28;20519;-83
2020/12/23 00:39:50;;;;;;;124.67;59.30;;;;;;;7.44;89.05;95587.22;5034454;28;20560;-83
2020/12/23 00:42:20;;;;;;;130.53;57.67;;;;;;;7.46;88.83;95595.81;5034707;28;20451;-83
2020/12/23 00:44:46;;;;;;;112.77;56.30;;;;;;;7.48;88.70;95598.31;5034499;28;20454;-83
2020/12/23 00:47:13;;;;;;;97.20;54.60;;;;;;;7.51;88.67;95599.91;5035876;28;20506;-83
2020/12/23 00:49:39;;;;;;;108.90;56.90;;;;;;;7.51;88.28;95589.47;5038426;28;20442;-83
2020/12/23 00:52:06;;;;;;;108.97;56.03;;;;;;;7.52;88.68;95594.63;5037903;28;20462;-84
2020/12/23 00:54:34;;;;;;;115.87;58.40;;;;;;;7.53;88.65;95587.63;5039132;28;20609;-83
2020/12/23 00:57:00;;;;;;;116.60;59.63;;;;;;;7.53;88.65;95585.84;5003399;28;20529;-83
2020/12/23 00:59:27;;;;;;;112.67;57.47;;;;;;;7.54;88.79;95582.31;5037134;28;20442;-82
2020/12/23 01:01:57;;;;;;;113.50;57.60;;;;;;;7.55;88.75;95580.53;5001799;28;20446;-83
2020/12/23 01:04:23;;;;;;;114.23;60.93;;;;;;;7.53;88.44;95590.22;5035979;28;20509;-83
2020/12/23 01:06:50;;;;;;;102.47;57.77;;;;;;;7.53;88.69;95583.25;5037271;28;20464;-83
2020/12/23 01:09:17;;;;;;;115.90;57.40;;;;;;;7.54;88.45;95569.25;5036838;28;20462;-83
2020/12/23 01:11:44;;;;;;;106.03;57.47;;;;;;;7.55;88.41;95577.91;5036356;28;20443;-83
2020/12/23 01:14:11;;;;;;;113.67;57.13;;;;;;;7.54;88.38;95565.78;5036176;28;20447;-84
2020/12/23 01:16:37;;;;;;;110.83;58.40;;;;;;;7.56;88.82;95563.94;5034587;28;20462;-84
2020/12/23 01:19:04;;;;;;;113.63;57.50;;;;;;;7.57;88.37;95568.22;5035822;28;20481;-82
2020/12/23 01:21:30;;;;;;;113.63;56.90;;;;;;;7.55;88.35;95572.69;5035246;28;20511;-83
2020/12/23 01:23:56;;;;;;;112.10;61.93;;;;;;;7.46;88.30;95576.69;4999759;28;20486;-83
2020/12/23 01:26:23;;;;;;;119.80;57.80;;;;;;;7.43;88.86;95580.34;5033921;28;20453;-83
2020/12/23 01:28:50;;;;;;;132.43;65.00;;;;;;;7.39;89.23;95580.63;5033983;28;20447;-83
2020/12/23 01:31:17;;;;;;;138.30;68.33;;;;;;;7.37;88.94;95583.31;5034970;28;20465;-83
2020/12/23 01:33:43;;;;;;;149.07;75.83;;;;;;;7.32;89.08;95577.56;5036140;28;20456;-83
2020/12/23 01:36:10;;;;;;;159.90;77.50;;;;;;;7.31;88.86;95568.03;5034105;28;20946;-83
2020/12/23 01:38:37;;;;;;;148.60;73.77;;;;;;;7.25;89.16;95570.19;5034151;28;20962;-84
2020/12/23 01:41:05;;;;;;;131.27;71.73;;;;;;;7.21;89.38;95572.13;5034260;28;20454;-83
2020/12/23 01:43:32;;;;;;;159.20;74.83;;;;;;;7.20;89.57;95562.63;5034690;28;20486;-83
2020/12/23 01:46:00;;;;;;;146.40;72.00;;;;;;;7.20;89.49;95564.38;5034699;28;20512;-84
2020/12/23 01:48:31;;;;;;;135.63;64.57;;;;;;;7.18;89.46;95558.44;5035500;28;20474;-84
2020/12/23 01:50:58;;;;;;;121.27;62.50;;;;;;;7.20;88.80;95557.41;5035249;28;20491;-83
2020/12/23 01:53:25;;;;;;;127.80;62.77;;;;;;;7.18;89.32;95553.22;5034845;28;20442;-83
2020/12/23 01:55:52;;;;;;;137.77;65.30;;;;;;;7.18;88.87;95545.38;5033749;28;20485;-84
2020/12/23 01:58:19;;;;;;;126.43;66.23;;;;;;;7.14;88.26;95548.19;5033279;28;20447;-83
2020/12/23 02:00:45;;;;;;;119.57;58.30;;;;;;;7.12;88.76;95547.44;5033104;28;20943;-84
2020/12/23 02:03:13;;;;;;;104.03;56.90;;;;;;;7.11;88.57;95537.09;5032770;28;20577;-83
2020/12/23 02:05:41;;;;;;;113.17;57.47;;;;;;;7.10;89.16;95531.03;5032918;28;20449;-84
2020/12/23 02:08:09;;;;;;;115.30;55.77;;;;;;;7.10;88.83;95522.38;5033263;28;20454;-83
2020/12/23 02:10:36;;;;;;;98.20;51.70;;;;;;;7.08;89.01;95532.91;5033689;28;20438;-83
2020/12/23 02:13:03;;;;;;;103.80;53.10;;;;;;;7.09;89.57;95529.34;5034280;28;20934;-83
2020/12/23 02:15:29;;;;;;;94.53;50.50;;;;;;;7.09;88.96;95528.50;4999553;28;20444;-83
2020/12/23 02:17:56;;;;;;;103.07;55.07;;;;;;;7.08;89.30;95526.84;5036832;28;20462;-84
2020/12/23 02:20:23;;;;;;;106.33;55.80;;;;;;;7.06;88.97;95526.09;5033790;28;20523;-84
2020/12/23 02:22:51;;;;;;;102.93;54.90;;;;;;;7.05;89.82;95521.81;5032548;28;20517;-84
2020/12/23 02:25:18;;;;;;;96.23;47.43;;;;;;;7.04;89.59;95526.19;5032231;28;20445;-83
2020/12/23 02:27:44;;;;;;;93.83;47.20;;;;;;;7.01;90.04;95520.31;5032388;28;20512;-84
2020/12/23 02:30:12;;;;;;;89.93;46.97;;;;;;;7.04;90.05;95525.34;5033042;28;20438;-83
2020/12/23 02:32:39;;;;;;;91.07;45.70;;;;;;;7.06;90.38;95528.72;5033292;28;20493;-84
2020/12/23 02:35:07;;;;;;;99.70;48.13;;;;;;;7.04;90.20;95523.59;5033266;28;20456;-84
2020/12/23 02:37:33;;;;;;;83.20;43.77;;;;;;;7.04;90.07;95520.97;4998523;28;20446;-84
2020/12/23 02:40:01;;;;;;;86.30;46.43;;;;;;;7.05;90.74;95519.19;5035130;28;20496;-83
2020/12/23 02:42:27;;;;;;;82.50;44.80;;;;;;;7.05;90.86;95521.81;5032652;28;20451;-82
2020/12/23 02:44:55;;;;;;;91.60;45.10;;;;;;;7.02;90.59;95519.38;5032449;28;20454;-82
2020/12/23 02:47:22;;;;;;;88.03;42.97;;;;;;;7.02;90.70;95520.22;5034035;28;20449;-83
2020/12/23 02:49:49;;;;;;;85.83;43.43;;;;;;;7.04;90.93;95517.53;5032996;28;20890;-83
2020/12/23 02:52:15;;;;;;;83.97;42.70;;;;;;;7.08;90.89;95512.03;5032486;28;20922;-83
2020/12/23 02:54:41;;;;;;;86.03;45.00;;;;;;;7.12;90.63;95512.66;5032227;28;20470;-83
2020/12/23 02:57:09;;;;;;;84.23;44.00;;;;;;;7.15;90.52;95504.66;5032404;28;20438;-83
2020/12/23 02:59:35;;;;;;;67.90;39.87;;;;;;;7.18;89.66;95503.63;5032266;28;20984;-83
2020/12/23 03:02:02;;;;;;;84.00;42.97;;;;;;;7.17;90.25;95505.38;5032129;28;20533;-82
2020/12/23 03:04:28;;;;;;;82.50;43.40;;;;;;;7.16;89.71;95514.16;5013617;28;20489;-82
2020/12/23 03:06:55;;;;;;;91.53;46.23;;;;;;;7.08;90.19;95521.63;5032043;28;21021;-82
2020/12/23 03:09:22;;;;;;;86.73;43.90;;;;;;;7.07;90.38;95510.34;5031991;28;20533;-82
2020/12/23 03:11:48;;;;;;;90.10;46.50;;;;;;;7.02;90.77;95511.56;5031974;28;20462;-82
2020/12/23 03:14:16;;;;;;;85.17;46.40;;;;;;;7.04;90.62;95522.75;5032262;28;20446;-82
2020/12/23 03:16:42;;;;;;;87.67;44.63;;;;;;;7.04;90.50;95515.75;4997073;28;20981;-83
2020/12/23 03:19:09;;;;;;;90.40;44.50;;;;;;;6.98;90.32;95516.13;5032003;28;20446;-83
2020/12/23 03:21:35;;;;;;;82.27;45.70;;;;;;;6.97;90.80;95518.84;5031864;28;20517;-83
2020/12/23 03:24:02;;;;;;;74.07;40.30;;;;;;;6.97;91.45;95516.22;5032076;28;20847;-83
2020/12/23 03:26:28;;;;;;;77.67;42.27;;;;;;;7.00;91.53;95524.69;5032666;28;20474;-83
2020/12/23 03:28:55;;;;;;;89.00;45.30;;;;;;;7.02;91.68;95524.59;5031736;28;20496;-84
2020/12/23 03:31:22;;;;;;;98.10;46.47;;;;;;;7.04;91.27;95534.03;5032255;28;20458;-82
2020/12/23 03:33:49;;;;;;;94.13;44.10;;;;;;;7.07;91.68;95528.59;5031874;28;20446;-82
2020/12/23 03:36:15;;;;;;;82.83;44.83;;;;;;;7.02;90.75;95525.44;5033265;28;20441;-82
2020/12/23 03:38:42;;;;;;;78.50;42.70;;;;;;;6.98;91.45;95528.34;5035370;28;20445;-82
2020/12/23 03:41:08;;;;;;;75.67;41.23;;;;;;;7.02;90.86;95540.25;5035593;28;20450;-82
2020/12/23 03:43:35;;;;;;;102.50;43.40;;;;;;;7.02;91.99;95542.88;5035833;28;20490;-83
2020/12/23 03:46:01;;;;;;;86.17;42.27;;;;;;;7.05;91.25;95543.53;5035492;28;20450;-83
2020/12/23 03:48:29;;;;;;;84.80;43.33;;;;;;;7.10;91.79;95545.84;5000853;28;20486;-83
2020/12/23 03:50:56;;;;;;;90.37;42.90;;;;;;;7.11;91.25;95532.72;5035560;28;20446;-82
2020/12/23 03:53:22;;;;;;;77.03;40.67;;;;;;;7.14;91.32;95540.34;5035566;28;20883;-82
2020/12/23 03:55:49;;;;;;;76.80;35.60;;;;;;;7.17;91.10;95541.09;5035711;28;20482;-83
2020/12/23 03:58:16;;;;;;;66.17;36.90;;;;;;;7.22;90.77;95545.09;5035367;28;20453;-82
2020/12/23 04:00:42;;;;;;;63.80;34.07;;;;;;;7.25;90.24;95550.16;5035236;28;20462;-83
2020/12/23 04:03:09;;;;;;;78.10;34.57;;;;;;;7.30;90.34;95553.31;5035361;28;20485;-82
2020/12/23 04:05:36;;;;;;;76.13;34.33;;;;;;;7.32;90.12;95542.78;5034952;28;20950;-82
2020/12/23 04:08:03;;;;;;;60.27;32.60;;;;;;;7.34;89.82;95533.91;5035339;28;20446;-82
2020/12/23 04:10:29;;;;;;;54.33;31.80;;;;;;;7.36;89.73;95542.50;5034923;28;20517;-82
2020/12/23 04:12:56;;;;;;;71.27;34.17;;;;;;;7.38;89.58;95534.56;5035817;28;20536;-82
2020/12/23 04:15:22;;;;;;;62.07;31.43;;;;;;;7.41;89.38;95545.66;5037552;28;20520;-83
2020/12/23 04:17:50;;;;;;;58.17;29.50;;;;;;;7.43;89.62;95542.94;5000049;28;20457;-85
2020/12/23 04:20:16;;;;;;;60.80;31.60;;;;;;;7.43;89.25;95537.72;5036102;28;20456;-86
2020/12/23 04:22:44;;;;;;;59.17;31.10;;;;;;;7.37;89.04;95538.94;5035499;28;20451;-84
2020/12/23 04:25:10;;;;;;;59.00;31.67;;;;;;;7.37;89.44;95538.09;5035596;28;20798;-84
2020/12/23 04:27:37;;;;;;;57.77;30.40;;;;;;;7.37;89.40;95536.34;5035132;28;20461;-82
2020/12/23 04:30:04;;;;;;;65.90;31.47;;;;;;;7.40;89.54;95532.69;5035240;28;20833;-83
2020/12/23 04:32:31;;;;;;;59.60;33.57;;;;;;;7.43;89.35;95535.09;5034351;28;20454;-83
2020/12/23 04:35:01;;;;;;;64.60;30.90;;;;;;;7.38;89.40;95535.41;5034657;28;20458;-83
2020/12/23 04:37:27;;;;;;;52.07;29.90;;;;;;;7.38;89.68;95535.41;5001006;28;20454;-83
2020/12/23 04:39:55;;;;;;;52.40;29.23;;;;;;;7.42;89.43;95539.50;5034580;28;20458;-83
2020/12/23 04:42:21;;;;;;;68.50;32.50;;;;;;;7.38;89.27;95537.16;5034421;28;20443;-84
2020/12/23 04:44:48;;;;;;;55.43;30.57;;;;;;;7.37;89.29;95546.78;5034473;28;20486;-83
2020/12/23 04:47:16;;;;;;;71.77;35.30;;;;;;;7.36;90.38;95545.09;5033994;28;20447;-83
2020/12/23 04:49:46;;;;;;;55.10;32.83;;;;;;;7.35;90.02;95553.88;5034519;28;20446;-83
2020/12/23 04:52:13;;;;;;;63.57;33.17;;;;;;;7.33;90.22;95558.34;5034172;28;20447;-83
2020/12/23 04:54:40;;;;;;;72.33;37.03;;;;;;;7.27;90.92;95542.22;5034062;28;20475;-84
2020/12/23 04:57:07;;;;;;;78.87;36.77;;;;;;;7.23;90.72;95538.09;5034018;28;20931;-83
2020/12/23 04:59:33;;;;;;;62.67;35.93;;;;;;;7.22;91.47;95539.88;5015501;28;20569;-84
2020/12/23 05:02:01;;;;;;;68.90;35.77;;;;;;;7.28;91.76;95541.28;5034172;28;20450;-83
2020/12/23 05:04:27;;;;;;;69.77;35.33;;;;;;;7.27;91.84;95527.41;5033988;28;20540;-84
2020/12/23 05:07:04;;;;;;;62.60;35.57;;;;;;;7.34;91.19;95538.28;5033759;28;20454;-83
2020/12/23 05:09:31;;;;;;;71.87;36.60;;;;;;;7.35;91.14;95535.59;5033647;28;20453;-83
2020/12/23 05:11:57;;;;;;;82.57;35.93;;;;;;;7.37;90.98;95541.56;5034094;28;20438;-83
2020/12/23 05:14:27;;;;;;;65.73;34.13;;;;;;;7.41;90.18;95550.88;5033691;28;20451;-82
2020/12/23 05:16:54;;;;;;;70.90;33.50;;;;;;;7.43;90.85;95550.78;5033912;28;20966;-83
2020/12/23 05:19:20;;;;;;;75.87;35.00;;;;;;;7.46;90.81;95554.03;5033678;28;20460;-83
2020/12/23 05:21:47;;;;;;;61.77;32.43;;;;;;;7.49;90.89;95544.31;5033733;28;20450;-83
2020/12/23 05:24:14;;;;;;;63.07;32.17;;;;;;;7.50;89.88;95535.56;5034977;28;20482;-82
2020/12/23 05:26:42;;;;;;;65.83;31.43;;;;;;;7.50;90.26;95540.78;5033451;28;20813;-83
2020/12/23 05:29:11;;;;;;;65.20;34.80;;;;;;;7.55;90.45;95538.75;5033576;28;20464;-83
2020/12/23 05:31:39;;;;;;;72.43;36.23;;;;;;;7.58;90.23;95542.00;5033418;28;20817;-83
2020/12/23 05:34:06;;;;;;;60.50;32.97;;;;;;;7.59;90.54;95548.06;5034089;28;20454;-87
2020/12/23 05:36:34;;;;;;;64.70;32.53;;;;;;;7.66;91.49;95544.97;5039060;28;20466;-89
2020/12/23 05:39:01;;;;;;;63.27;31.07;;;;;;;7.73;92.82;95542.78;5039005;28;20571;-90
2020/12/23 05:41:28;;;;;;;57.33;32.40;;;;;;;7.78;92.04;95541.56;5036914;28;20479;-89
2020/12/23 05:43:54;;;;;;;58.57;32.23;;;;;;;7.84;90.15;95552.59;5033020;28;20473;-82
2020/12/23 05:46:21;;;;;;;69.53;34.00;;;;;;;7.85;89.68;95549.03;5033373;28;20828;-81
2020/12/23 05:48:48;;;;;;;71.22;36.20;;;;;;;7.83;89.35;95549.13;4998687;28;20456;-82
2020/12/23 05:51:15;;;;;;;67.17;35.67;;;;;;;7.86;88.55;95555.94;5032999;28;20270;-82
2020/12/23 05:53:41;;;;;;;72.27;33.03;;;;;;;7.86;88.27;95562.00;5033054;28;20465;-82
2020/12/23 05:56:09;;;;;;;67.70;34.97;;;;;;;7.88;88.40;95559.28;5030114;28;20472;-82
2020/12/23 05:58:38;;;;;;;70.73;34.00;;;;;;;7.87;88.10;95555.00;5027800;28;20512;-82
2020/12/23 06:01:06;;;;;;;62.23;33.30;;;;;;;7.87;88.28;95579.34;5008060;28;20443;-82
2020/12/23 06:03:50;;;;;;;64.47;35.80;;;;;;;7.86;88.79;95571.63;5024220;28;20588;-82
2020/12/23 06:06:22;;;;;;;58.17;32.40;;;;;;;7.84;88.79;95569.09;5032982;28;20854;-84
2020/12/23 06:08:51;;;;;;;62.83;34.33;;;;;;;7.82;89.45;95581.44;5032813;28;20476;-83
2020/12/23 06:11:34;;;;;;;65.90;34.93;;;;;;;7.82;89.18;95573.59;5032789;28;21018;-83
2020/12/23 06:14:16;;;;;;;64.13;34.70;;;;;;;7.84;89.52;95573.50;5032534;28;20457;-82
2020/12/23 06:16:46;;;;;;;61.67;33.80;;;;;;;7.84;88.58;95583.94;4952099;29;20545;-82
2020/12/23 06:19:20;;;;;;;59.67;33.10;;;;;;;7.85;89.45;95583.84;4952245;29;20501;-83
2020/12/23 06:21:49;;;;;;;71.50;32.80;;;;;;;7.85;89.59;95586.44;4952551;29;20454;-83
2020/12/23 06:24:16;;;;;;;62.03;31.10;;;;;;;7.84;89.69;95582.16;4952422;29;20606;-83
2020/12/23 06:26:46;;;;;;;57.07;30.83;;;;;;;7.82;88.85;95594.50;4952392;29;20621;-83
2020/12/23 06:29:14;;;;;;;58.33;32.97;;;;;;;7.82;89.62;95594.50;4952211;29;20470;-83
2020/12/23 06:31:42;;;;;;;60.80;33.57;;;;;;;7.84;90.00;95590.00;4952475;29;20445;-84
2020/12/23 06:34:13;;;;;;;57.97;32.97;;;;;;;7.84;90.00;95583.94;4937394;29;20446;-83
2020/12/23 06:36:40;;;;;;;56.07;32.70;;;;;;;7.87;89.50;95596.81;4933054;29;20449;-83
2020/12/23 06:39:27;;;;;;;63.57;35.30;;;;;;;7.86;89.77;95590.75;4932795;29;20459;-82
2020/12/23 06:42:15;;;;;;;65.43;35.10;;;;;;;7.87;89.90;95594.19;4932898;29;20444;-82
2020/12/23 06:45:03;;;;;;;65.50;38.97;;;;;;;7.85;90.23;95596.91;4933037;29;20486;-83
2020/12/23 06:47:31;;;;;;;64.60;38.63;;;;;;;7.87;89.90;95599.41;4932708;29;20578;-82
2020/12/23 06:49:59;;;;;;;66.70;37.40;;;;;;;7.89;89.79;95595.78;4933000;29;20451;-83
2020/12/23 06:52:33;;;;;;;61.93;34.93;;;;;;;7.88;89.96;95601.94;4932756;29;20484;-83
2020/12/23 06:55:02;;;;;;;56.67;35.20;;;;;;;7.89;89.59;95597.53;5009042;28;20482;-83
2020/12/23 06:57:49;;;;;;;66.17;33.90;;;;;;;7.95;90.06;95600.59;5012437;28;20458;-82
2020/12/23 07:00:30;;;;;;;59.40;37.07;;;;;;;7.99;90.16;95599.47;5012548;28;20447;-84
2020/12/23 07:02:58;;;;;;;63.40;34.93;;;;;;;8.03;89.88;95605.34;5012518;28;20460;-83
2020/12/23 07:05:33;;;;;;;66.73;37.80;;;;;;;8.11;89.63;95610.94;5012524;28;20964;-95
2020/12/23 07:08:02;;;;;;;60.20;35.00;;;;;;;8.16;89.14;95618.50;5012515;28;20856;-83
2020/12/23 07:10:31;;;;;;;56.87;31.40;;;;;;;8.19;88.91;95623.50;5012432;28;20451;-84
2020/12/23 07:12:59;;;;;;;62.07;34.43;;;;;;;8.21;88.94;95626.88;5016993;28;20452;-85
2020/12/23 07:15:26;;;;;;;60.10;31.33;;;;;;;8.23;88.19;95625.00;5016716;28;20447;-84
2020/12/23 07:17:54;;;;;;;56.00;31.47;;;;;;;8.25;88.49;95636.19;5016324;28;20458;-81
2020/12/23 07:20:23;;;;;;;49.70;30.87;;;;;;;8.32;90.04;95633.06;5016051;28;20542;-82
2020/12/23 07:22:51;;;;;;;66.37;36.97;;;;;;;8.37;89.22;95627.59;5015939;28;20451;-83
2020/12/23 07:25:22;;;;;;;62.23;36.57;;;;;;;8.40;89.51;95627.41;5016201;28;20440;-82
2020/12/23 07:27:55;;;;;;;135.53;57.90;;;;;;;8.42;88.71;95620.31;5016083;28;20448;-83
2020/12/23 07:30:22;;;;;;;91.97;48.73;;;;;;;8.45;88.17;95616.66;5016674;28;20439;-83
2020/12/23 07:32:59;;;;;;;75.83;40.10;;;;;;;8.46;88.78;95619.16;5016325;28;20471;-78
2020/12/23 07:35:26;;;;;;;66.37;37.90;;;;;;;8.48;88.19;95625.13;5015676;28;20459;-80
2020/12/23 07:37:58;;;;;;;66.03;35.50;;;;;;;8.51;88.57;95622.31;5017249;28;20454;-83
2020/12/23 07:40:25;;;;;;;68.57;35.77;;;;;;;8.55;88.22;95621.16;5015763;28;20448;-81
2020/12/23 07:42:53;;;;;;;60.60;34.60;;;;;;;8.59;87.75;95622.66;5015805;28;20537;-81
2020/12/23 07:45:20;;;;;;;55.60;34.83;;;;;;;8.64;88.14;95624.97;5016169;28;20486;-80
2020/12/23 07:47:58;;;;;;;69.20;41.40;;;;;;;8.68;87.74;95635.16;4980729;28;20433;-81
2020/12/23 07:50:26;;;;;;;67.40;38.17;;;;;;;8.74;87.29;95626.06;5015972;28;20435;-82
2020/12/23 07:52:52;;;;;;;67.85;43.47;;;;;;;8.88;87.50;95618.13;5014581;28;20461;-84
2020/12/23 07:55:20;;;;;;;65.07;37.40;;;;;;;8.98;87.20;95607.88;5019644;28;20224;-79
2020/12/23 07:57:48;;;;;;;72.53;36.67;;;;;;;9.03;86.30;95608.41;5033404;28;20452;-79
2020/12/23 08:00:16;;;;;;;59.17;32.20;;;;;;;9.13;85.68;95624.31;5035152;28;20804;-79
2020/12/23 08:02:43;;;;;;;63.57;30.63;;;;;;;9.17;85.08;95624.00;5015073;28;20456;-79
2020/12/23 08:05:12;;;;;;;57.23;33.20;;;;;;;9.20;84.72;95621.19;5014870;28;20848;-79
2020/12/23 08:07:42;;;;;;;56.30;34.13;;;;;;;9.26;84.92;95625.19;5015058;28;20454;-79
2020/12/23 08:10:11;;;;;;;60.63;34.30;;;;;;;9.28;84.74;95628.53;5015470;28;20453;-80
2020/12/23 08:12:38;;;;;;;68.97;36.60;;;;;;;9.25;84.57;95626.97;5014750;28;20455;-80
2020/12/23 08:15:12;;;;;;;66.43;35.87;;;;;;;9.27;84.55;95627.72;5014736;28;20444;-80
2020/12/23 08:17:40;;;;;;;68.87;35.37;;;;;;;9.26;85.04;95631.28;5015256;28;20457;-80
2020/12/23 08:20:09;;;;;;;70.53;37.07;;;;;;;9.19;85.43;95629.97;5014663;28;20810;-80
2020/12/23 08:22:37;;;;;;;71.03;36.40;;;;;;;9.16;85.67;95630.19;5013709;28;20443;-80
2020/12/23 08:25:06;;;;;;;61.90;35.10;;;;;;;9.17;85.91;95631.03;5020672;28;20528;-79
2020/12/23 08:27:33;;;;;;;69.57;41.87;;;;;;;9.03;86.53;95637.22;4999529;28;20439;-78
2020/12/23 08:30:02;;;;;;;82.93;49.33;;;;;;;8.88;87.00;95636.44;5026572;28;20440;-78
2020/12/23 08:32:34;;;;;;;97.57;49.47;;;;;;;8.97;87.19;95630.59;5014946;28;20436;-78
2020/12/23 08:35:03;;;;;;;84.67;48.07;;;;;;;8.67;86.99;95625.63;5014228;28;20981;-78
2020/12/23 08:37:29;;;;;;;59.63;34.57;;;;;;;8.77;87.59;95633.69;5014232;28;20447;-80
2020/12/23 08:39:57;;;;;;;67.53;35.13;;;;;;;8.94;87.75;95640.41;5014303;28;20454;-79
2020/12/23 08:42:24;;;;;;;71.47;39.17;;;;;;;9.13;87.69;95629.56;5014004;28;20979;-79
2020/12/23 08:44:52;;;;;;;61.23;33.60;;;;;;;9.25;87.04;95633.97;5013887;28;21003;-80
2020/12/23 08:47:22;;;;;;;57.60;32.30;;;;;;;9.11;86.59;95615.75;5014079;28;20448;-79
2020/12/23 08:49:49;;;;;;;59.07;30.53;;;;;;;9.11;87.02;95620.97;5014391;28;20461;-80
2020/12/23 08:52:17;;;;;;;53.27;31.33;;;;;;;9.16;87.12;95618.88;5014014;28;20954;-80
2020/12/23 08:54:44;;;;;;;61.23;33.43;;;;;;;9.24;86.67;95611.34;5027826;28;20484;-80
2020/12/23 08:57:12;;;;;;;57.07;29.23;;;;;;;9.36;86.48;95599.22;5015028;28;20451;-80
2020/12/23 08:59:40;;;;;;;51.80;28.57;;;;;;;9.48;85.65;95593.94;4992861;28;20443;-80
2020/12/23 09:02:13;;;;;;;57.90;34.60;;;;;;;9.62;86.05;95590.38;4987872;28;20970;-80
2020/12/23 09:04:40;;;;;;;56.10;32.70;;;;;;;9.65;84.97;95589.34;5022331;28;20490;-79
2020/12/23 09:07:07;;;;;;;63.93;30.67;;;;;;;9.63;85.14;95590.28;5031672;28;20457;-80
2020/12/23 09:09:35;;;;;;;57.13;30.17;;;;;;;9.49;85.51;95574.66;5017725;28;20447;-80
2020/12/23 09:12:04;;;;;;;48.63;28.13;;;;;;;9.54;84.99;95572.59;5013670;28;20451;-79
2020/12/23 09:14:31;;;;;;;60.57;28.73;;;;;;;9.54;85.78;95577.81;5013640;28;20447;-80
2020/12/23 09:17:01;;;;;;;48.87;29.20;;;;;;;9.75;86.03;95572.84;5013579;28;20952;-80
2020/12/23 09:19:44;;;;;;;59.70;29.57;;;;;;;9.86;84.45;95565.06;5013714;28;20453;-81
2020/12/23 09:22:12;;;;;;;58.90;34.57;;;;;;;9.89;84.17;95557.00;5013858;28;20537;-80
2020/12/23 09:24:39;;;;;;;59.10;32.77;;;;;;;10.02;83.53;95554.31;4979068;28;20509;-80
2020/12/23 09:27:23;;;;;;;60.07;30.23;;;;;;;10.17;83.64;95568.13;5013932;28;20818;-80
2020/12/23 09:29:50;;;;;;;57.27;29.43;;;;;;;10.26;83.11;95570.09;5013812;28;20461;-81
2020/12/23 09:32:17;;;;;;;47.87;27.97;;;;;;;10.36;82.78;95565.84;5013422;28;20459;-80
2020/12/23 09:34:43;;;;;;;47.17;29.77;;;;;;;10.32;81.77;95564.41;5012861;28;20805;-80
2020/12/23 09:37:10;;;;;;;52.90;33.07;;;;;;;10.41;82.51;95565.53;4995363;28;20458;-80
2020/12/23 09:39:37;;;;;;;67.70;36.03;;;;;;;10.52;82.49;95560.31;5013882;28;20450;-80
2020/12/23 09:42:06;;;;;;;69.07;36.63;;;;;;;10.60;82.63;95554.50;5013614;28;20471;-80
2020/12/23 09:44:33;;;;;;;53.67;33.50;;;;;;;10.53;82.56;95554.13;5012864;28;20876;-79
2020/12/23 09:47:00;;;;;;;51.30;33.23;;;;;;;10.65;82.86;95555.00;4978727;28;20582;-79
2020/12/23 09:49:26;;;;;;;47.37;29.50;;;;;;;10.64;81.58;95551.53;5013499;28;20470;-80
2020/12/23 09:51:53;;;;;;;52.70;31.40;;;;;;;10.73;81.16;95540.38;5013057;28;20492;-80
2020/12/23 09:54:20;;;;;;;53.77;31.83;;;;;;;10.78;81.53;95527.72;5013269;28;20481;-80
2020/12/23 09:56:48;;;;;;;50.83;28.10;;;;;;;10.89;80.92;95529.53;5013213;28;20446;-80
2020/12/23 09:59:15;;;;;;;50.73;29.00;;;;;;;10.85;80.57;95533.34;5012967;28;20443;-80
2020/12/23 10:01:42;;;;;;;47.43;28.40;;;;;;;11.08;79.79;95527.19;5024788;28;20445;-80
2020/12/23 10:04:08;;;;;;;46.13;30.00;;;;;;;11.23;80.02;95529.56;5032531;28;20490;-80
2020/12/23 10:06:35;;;;;;;56.67;28.93;;;;;;;11.25;79.72;95520.59;5032510;28;20452;-79
2020/12/23 10:09:01;;;;;;;49.70;29.20;;;;;;;11.30;78.61;95515.03;5032542;28;20458;-80
2020/12/23 10:11:28;;;;;;;51.03;30.03;;;;;;;11.34;79.63;95513.81;5015860;28;20458;-81
2020/12/23 10:13:54;;;;;;;56.57;30.40;;;;;;;11.38;79.63;95516.09;5034068;28;20488;-84
2020/12/23 10:16:22;;;;;;;55.17;31.27;;;;;;;11.42;79.73;95512.28;5036353;28;20466;-83
2020/12/23 10:18:48;;;;;;;57.63;32.03;;;;;;;11.38;80.23;95513.47;5034368;28;20534;-82
2020/12/23 10:21:15;;;;;;;47.50;24.20;;;;;;;11.41;79.15;95504.50;5004366;28;20446;-84
2020/12/23 10:23:41;;;;;;;51.53;28.63;;;;;;;11.47;79.15;95501.38;5033164;28;20487;-80
2020/12/23 10:26:07;;;;;;;53.20;28.60;;;;;;;11.46;79.69;95510.22;5014986;28;20451;-82
2020/12/23 10:28:34;;;;;;;61.63;32.20;;;;;;;11.48;80.18;95500.44;5017969;28;20445;-80
2020/12/23 10:31:01;;;;;;;33.47;20.63;;;;;;;11.48;78.95;95503.06;5030845;28;20517;-82
2020/12/23 10:33:28;;;;;;;52.73;28.47;;;;;;;11.52;79.33;95496.59;5033420;28;20926;-83
2020/12/23 10:35:55;;;;;;;52.00;31.40;;;;;;;11.38;79.71;95494.25;5023123;28;20474;-86
2020/12/23 10:38:21;;;;;;;56.47;31.60;;;;;;;11.36;80.53;95483.00;5020202;28;20469;-83
2020/12/23 10:40:47;;;;;;;57.30;30.70;;;;;;;11.44;80.38;95486.69;5017559;28;20476;-86
2020/12/23 10:43:14;;;;;;;40.73;18.20;;;;;;;11.57;80.09;95477.88;5016258;28;20451;-82
2020/12/23 10:45:40;;;;;;;27.20;14.60;;;;;;;11.67;79.28;95468.28;5013928;28;20498;-84
2020/12/23 10:48:06;;;;;;;23.47;11.20;;;;;;;11.75;78.32;95473.75;5014362;28;20443;-84
2020/12/23 10:50:34;;;;;;;23.03;10.57;;;;;;;11.87;77.73;95482.50;5015073;28;20447;-88
2020/12/23 10:53:00;;;;;;;12.23;5.13;;;;;;;11.99;77.16;95474.44;5016602;28;20451;-84
2020/12/23 10:55:27;;;;;;;5.13;4.10;;;;;;;12.05;76.56;95462.59;5015651;28;20474;-84
2020/12/23 10:57:53;;;;;;;6.97;5.20;;;;;;;12.14;76.08;95464.44;5015777;28;20466;-84
2020/12/23 11:00:20;;;;;;;8.80;6.43;;;;;;;12.35;75.26;95473.22;5031028;28;20444;-84
2020/12/23 11:02:46;;;;;;;12.30;8.17;;;;;;;12.57;74.18;95469.66;4982924;28;20461;-87
2020/12/23 11:05:13;;;;;;;9.40;5.50;;;;;;;12.65;73.23;95476.91;5016598;28;20534;-85
2020/12/23 11:07:40;;;;;;;12.80;8.13;;;;;;;12.79;73.86;95475.75;4965332;28;20476;-84
2020/12/23 11:10:07;;;;;;;9.53;5.40;;;;;;;12.91;72.46;95472.09;4997204;28;20453;-84
2020/12/23 11:12:34;;;;;;;7.60;4.30;;;;;;;13.04;72.24;95472.72;5014888;28;20457;-85
2020/12/23 11:15:01;;;;;;;11.87;6.83;;;;;;;13.15;71.11;95474.44;5014787;28;20457;-84
2020/12/23 11:17:27;;;;;;;10.80;6.70;;;;;;;13.21;71.44;95472.13;5017152;28;20467;-83
2020/12/23 11:19:54;;;;;;;7.80;5.73;;;;;;;13.35;70.50;95472.75;5015515;28;20475;-83
2020/12/23 11:22:21;;;;;;;9.03;5.90;;;;;;;13.40;70.34;95470.56;5015748;28;21033;-84
2020/12/23 11:24:48;;;;;;;10.37;5.97;;;;;;;13.41;70.33;95470.44;5014364;28;20527;-84